sensor_id;sensor_type;location;lat;lon;timestamp;temperature;humidity
11474;DHT22;5793;52.238;13.438;2022-10-17T00:00:20;12.10;99.90
11474;DHT22;5793;52.238;13.438;2022-10-17T00:02:48;12.10;99.90
11474;DHT22;5793;52.238;13.438;2022-10-17T00:05:16;12.10;99.90
11474;DHT22;5793;52.238;13.438;2022-10-17T00:07:44;12.10;99.90
11474;DHT22;5793;52.238;13.438;2022-10-17T00:10:12;12.10;99.90
11474;DHT22;5793;52.238;13.438;2022-10-17T00:12:39;12.10;99.90
11474;DHT22;5793;52.238;13.438;2022-10-17T00:15:13;12.10;99.90
11474;DHT22;5793;52.238;13.438;2022-10-17T00:17:41;12.10;99.90
11474;DHT22;5793;52.238;13.438;2022-10-17T00:20:10;12.20;99.90
11474;DHT22;5793;52.238;13.438;2022-10-17T00:22:37;12.20;99.90
11474;DHT22;5793;52.238;13.438;2022-10-17T00:25:06;12.20;99.90
11474;DHT22;5793;52.238;13.438;2022-10-17T00:27:34;12.30;99.90
11474;DHT22;5793;52.238;13.438;2022-10-17T00:30:04;12.30;99.90
11474;DHT22;5793;52.238;13.438;2022-10-17T00:32:33;12.20;99.90
11474;DHT22;5793;52.238;13.438;2022-10-17T00:35:01;12.10;99.90
11474;DHT22;5793;52.238;13.438;2022-10-17T00:37:29;11.90;99.90
11474;DHT22;5793;52.238;13.438;2022-10-17T00:39:57;11.80;99.90
11474;DHT22;5793;52.238;13.438;2022-10-17T00:42:26;11.80;99.90
11474;DHT22;5793;52.238;13.438;2022-10-17T00:45:13;11.60;99.90
11474;DHT22;5793;52.238;13.438;2022-10-17T00:47:46;11.50;99.90
11474;DHT22;5793;52.238;13.438;2022-10-17T00:50:14;11.50;99.90
11474;DHT22;5793;52.238;13.438;2022-10-17T00:52:43;11.50;99.90
11474;DHT22;5793;52.238;13.438;2022-10-17T00:55:14;11.50;99.90
11474;DHT22;5793;52.238;13.438;2022-10-17T00:57:43;11.60;99.90
11474;DHT22;5793;52.238;13.438;2022-10-17T01:00:13;11.70;99.90
11474;DHT22;5793;52.238;13.438;2022-10-17T01:02:42;11.70;99.90
11474;DHT22;5793;52.238;13.438;2022-10-17T01:05:10;11.70;99.90
11474;DHT22;5793;52.238;13.438;2022-10-17T01:07:39;11.70;99.90
11474;DHT22;5793;52.238;13.438;2022-10-17T01:10:08;11.60;99.90
11474;DHT22;5793;52.238;13.438;2022-10-17T01:12:56;11.60;99.90
11474;DHT22;5793;52.238;13.438;2022-10-17T01:15:34;11.60;99.90
11474;DHT22;5793;52.238;13.438;2022-10-17T01:18:14;11.60;99.90
11474;DHT22;5793;52.238;13.438;2022-10-17T01:21:02;11.60;99.90
11474;DHT22;5793;52.238;13.438;2022-10-17T01:24:06;11.60;99.90
11474;DHT22;5793;52.238;13.438;2022-10-17T01:26:56;11.50;99.90
11474;DHT22;5793;52.238;13.438;2022-10-17T01:29:37;11.40;99.90
11474;DHT22;5793;52.238;13.438;2022-10-17T01:32:17;11.40;99.90
11474;DHT22;5793;52.238;13.438;2022-10-17T01:34:52;11.30;99.90
11474;DHT22;5793;52.238;13.438;2022-10-17T01:37:27;11.30;99.90
11474;DHT22;5793;52.238;13.438;2022-10-17T01:40:02;11.30;99.90
11474;DHT22;5793;52.238;13.438;2022-10-17T01:42:37;11.20;99.90
11474;DHT22;5793;52.238;13.438;2022-10-17T01:45:13;11.20;99.90
11474;DHT22;5793;52.238;13.438;2022-10-17T01:47:45;11.20;99.90
11474;DHT22;5793;52.238;13.438;2022-10-17T01:50:17;11.10;99.90
11474;DHT22;5793;52.238;13.438;2022-10-17T01:52:47;11.00;99.90
11474;DHT22;5793;52.238;13.438;2022-10-17T01:55:20;11.00;99.90
11474;DHT22;5793;52.238;13.438;2022-10-17T01:57:50;11.00;99.90
11474;DHT22;5793;52.238;13.438;2022-10-17T02:00:22;11.00;99.90
11474;DHT22;5793;52.238;13.438;2022-10-17T02:02:55;11.10;99.90
11474;DHT22;5793;52.238;13.438;2022-10-17T02:05:27;11.10;99.90
11474;DHT22;5793;52.238;13.438;2022-10-17T02:07:57;11.10;99.90
11474;DHT22;5793;52.238;13.438;2022-10-17T02:10:31;11.10;99.90
11474;DHT22;5793;52.238;13.438;2022-10-17T02:13:05;11.10;99.90
11474;DHT22;5793;52.238;13.438;2022-10-17T02:15:50;11.00;99.90
11474;DHT22;5793;52.238;13.438;2022-10-17T02:18:33;11.00;99.90
11474;DHT22;5793;52.238;13.438;2022-10-17T02:21:08;11.00;99.90
11474;DHT22;5793;52.238;13.438;2022-10-17T02:23:42;10.90;99.90
11474;DHT22;5793;52.238;13.438;2022-10-17T02:26:18;10.90;99.90
11474;DHT22;5793;52.238;13.438;2022-10-17T02:28:52;10.80;99.90
11474;DHT22;5793;52.238;13.438;2022-10-17T02:31:29;10.80;99.90
11474;DHT22;5793;52.238;13.438;2022-10-17T02:34:01;10.70;99.90
11474;DHT22;5793;52.238;13.438;2022-10-17T02:36:35;10.60;99.90
11474;DHT22;5793;52.238;13.438;2022-10-17T02:39:05;10.60;99.90
11474;DHT22;5793;52.238;13.438;2022-10-17T02:41:35;10.60;99.90
11474;DHT22;5793;52.238;13.438;2022-10-17T02:44:05;10.60;99.90
11474;DHT22;5793;52.238;13.438;2022-10-17T02:46:34;10.60;99.90
11474;DHT22;5793;52.238;13.438;2022-10-17T02:49:09;10.60;99.90
11474;DHT22;5793;52.238;13.438;2022-10-17T02:51:42;10.60;99.90
11474;DHT22;5793;52.238;13.438;2022-10-17T02:54:16;10.60;99.90
11474;DHT22;5793;52.238;13.438;2022-10-17T02:56:49;10.70;99.90
11474;DHT22;5793;52.238;13.438;2022-10-17T02:59:20;10.70;99.90
11474;DHT22;5793;52.238;13.438;2022-10-17T03:01:49;10.70;99.90
11474;DHT22;5793;52.238;13.438;2022-10-17T03:04:19;10.80;99.90
11474;DHT22;5793;52.238;13.438;2022-10-17T03:06:47;10.80;99.90
11474;DHT22;5793;52.238;13.438;2022-10-17T03:09:15;10.90;99.90
11474;DHT22;5793;52.238;13.438;2022-10-17T03:11:43;10.90;99.90
11474;DHT22;5793;52.238;13.438;2022-10-17T03:14:11;11.00;99.90
11474;DHT22;5793;52.238;13.438;2022-10-17T03:16:38;11.10;99.90
11474;DHT22;5793;52.238;13.438;2022-10-17T03:19:06;11.10;99.90
11474;DHT22;5793;52.238;13.438;2022-10-17T03:21:35;11.20;99.90
11474;DHT22;5793;52.238;13.438;2022-10-17T03:24:04;11.30;99.90
11474;DHT22;5793;52.238;13.438;2022-10-17T03:26:32;11.30;99.90
11474;DHT22;5793;52.238;13.438;2022-10-17T03:29:00;11.40;99.90
11474;DHT22;5793;52.238;13.438;2022-10-17T03:31:28;11.50;99.90
11474;DHT22;5793;52.238;13.438;2022-10-17T03:33:55;11.60;99.90
11474;DHT22;5793;52.238;13.438;2022-10-17T03:36:23;11.70;99.90
11474;DHT22;5793;52.238;13.438;2022-10-17T03:38:54;11.80;99.90
11474;DHT22;5793;52.238;13.438;2022-10-17T03:41:22;11.80;99.90
11474;DHT22;5793;52.238;13.438;2022-10-17T03:43:51;11.80;99.90
11474;DHT22;5793;52.238;13.438;2022-10-17T03:46:19;11.80;99.90
11474;DHT22;5793;52.238;13.438;2022-10-17T03:48:47;11.80;99.90
11474;DHT22;5793;52.238;13.438;2022-10-17T03:51:14;11.70;99.90
11474;DHT22;5793;52.238;13.438;2022-10-17T03:53:42;11.60;99.90
11474;DHT22;5793;52.238;13.438;2022-10-17T03:56:14;11.60;99.90
11474;DHT22;5793;52.238;13.438;2022-10-17T03:58:42;11.50;99.90
11474;DHT22;5793;52.238;13.438;2022-10-17T04:01:11;11.60;99.90
11474;DHT22;5793;52.238;13.438;2022-10-17T04:03:40;11.50;99.90
11474;DHT22;5793;52.238;13.438;2022-10-17T04:06:10;11.40;99.90
11474;DHT22;5793;52.238;13.438;2022-10-17T04:08:39;11.40;99.90
11474;DHT22;5793;52.238;13.438;2022-10-17T04:11:12;11.40;99.90
11474;DHT22;5793;52.238;13.438;2022-10-17T04:13:40;11.40;99.90
11474;DHT22;5793;52.238;13.438;2022-10-17T04:16:11;11.30;99.90
11474;DHT22;5793;52.238;13.438;2022-10-17T04:18:39;11.30;99.90
11474;DHT22;5793;52.238;13.438;2022-10-17T04:21:08;11.30;99.90
11474;DHT22;5793;52.238;13.438;2022-10-17T04:23:37;11.30;99.90
11474;DHT22;5793;52.238;13.438;2022-10-17T04:26:05;11.30;99.90
11474;DHT22;5793;52.238;13.438;2022-10-17T04:28:35;11.40;99.90
11474;DHT22;5793;52.238;13.438;2022-10-17T04:31:11;11.40;99.90
11474;DHT22;5793;52.238;13.438;2022-10-17T04:33:40;11.40;99.90
11474;DHT22;5793;52.238;13.438;2022-10-17T04:36:11;11.30;99.90
11474;DHT22;5793;52.238;13.438;2022-10-17T04:38:39;11.30;99.90
11474;DHT22;5793;52.238;13.438;2022-10-17T04:41:09;11.30;99.90
11474;DHT22;5793;52.238;13.438;2022-10-17T04:43:39;11.30;99.90
11474;DHT22;5793;52.238;13.438;2022-10-17T04:46:13;11.30;99.90
11474;DHT22;5793;52.238;13.438;2022-10-17T04:48:41;11.20;99.90
11474;DHT22;5793;52.238;13.438;2022-10-17T04:51:11;11.30;99.90
11474;DHT22;5793;52.238;13.438;2022-10-17T04:53:41;11.30;99.90
11474;DHT22;5793;52.238;13.438;2022-10-17T04:56:10;11.30;99.90
11474;DHT22;5793;52.238;13.438;2022-10-17T04:58:41;11.40;99.90
11474;DHT22;5793;52.238;13.438;2022-10-17T05:01:11;11.40;99.90
11474;DHT22;5793;52.238;13.438;2022-10-17T05:03:39;11.40;99.90
11474;DHT22;5793;52.238;13.438;2022-10-17T05:06:09;11.40;99.90
11474;DHT22;5793;52.238;13.438;2022-10-17T05:08:38;11.30;99.90
11474;DHT22;5793;52.238;13.438;2022-10-17T05:11:14;11.30;99.90
11474;DHT22;5793;52.238;13.438;2022-10-17T05:13:44;11.20;99.90
11474;DHT22;5793;52.238;13.438;2022-10-17T05:16:15;11.30;99.90
11474;DHT22;5793;52.238;13.438;2022-10-17T05:18:43;11.20;99.90
11474;DHT22;5793;52.238;13.438;2022-10-17T05:21:19;11.30;99.90
11474;DHT22;5793;52.238;13.438;2022-10-17T05:23:47;11.50;99.90
11474;DHT22;5793;52.238;13.438;2022-10-17T05:26:16;11.60;99.90
11474;DHT22;5793;52.238;13.438;2022-10-17T05:28:45;11.90;99.90
11474;DHT22;5793;52.238;13.438;2022-10-17T05:31:13;12.00;99.90
11474;DHT22;5793;52.238;13.438;2022-10-17T05:33:41;12.20;99.90
11474;DHT22;5793;52.238;13.438;2022-10-17T05:36:09;12.30;99.90
11474;DHT22;5793;52.238;13.438;2022-10-17T05:38:37;12.40;99.90
11474;DHT22;5793;52.238;13.438;2022-10-17T05:41:05;12.40;99.90
11474;DHT22;5793;52.238;13.438;2022-10-17T05:43:33;12.50;99.90
11474;DHT22;5793;52.238;13.438;2022-10-17T05:46:04;12.50;99.90
11474;DHT22;5793;52.238;13.438;2022-10-17T05:48:32;12.50;99.90
11474;DHT22;5793;52.238;13.438;2022-10-17T05:51:01;12.60;99.90
11474;DHT22;5793;52.238;13.438;2022-10-17T05:53:29;12.70;99.90
11474;DHT22;5793;52.238;13.438;2022-10-17T05:55:59;12.80;99.90
11474;DHT22;5793;52.238;13.438;2022-10-17T05:58:27;12.80;99.90
11474;DHT22;5793;52.238;13.438;2022-10-17T06:01:16;12.80;99.90
11474;DHT22;5793;52.238;13.438;2022-10-17T06:03:44;12.90;99.90
11474;DHT22;5793;52.238;13.438;2022-10-17T06:06:13;13.00;99.90
11474;DHT22;5793;52.238;13.438;2022-10-17T06:08:41;13.00;99.90
11474;DHT22;5793;52.238;13.438;2022-10-17T06:11:09;13.20;99.90
11474;DHT22;5793;52.238;13.438;2022-10-17T06:13:37;13.20;99.90
11474;DHT22;5793;52.238;13.438;2022-10-17T06:16:06;13.20;99.90
11474;DHT22;5793;52.238;13.438;2022-10-17T06:18:35;13.20;99.90
11474;DHT22;5793;52.238;13.438;2022-10-17T06:21:04;13.20;99.90
11474;DHT22;5793;52.238;13.438;2022-10-17T06:23:32;13.20;99.90
11474;DHT22;5793;52.238;13.438;2022-10-17T06:26:00;13.20;99.90
11474;DHT22;5793;52.238;13.438;2022-10-17T06:28:29;13.30;99.90
11474;DHT22;5793;52.238;13.438;2022-10-17T06:30:57;13.40;99.90
11474;DHT22;5793;52.238;13.438;2022-10-17T06:33:24;13.50;99.90
11474;DHT22;5793;52.238;13.438;2022-10-17T06:35:54;13.50;99.90
11474;DHT22;5793;52.238;13.438;2022-10-17T06:38:22;13.60;99.90
11474;DHT22;5793;52.238;13.438;2022-10-17T06:40:50;13.70;99.90
11474;DHT22;5793;52.238;13.438;2022-10-17T06:43:19;13.80;99.90
11474;DHT22;5793;52.238;13.438;2022-10-17T06:45:53;13.90;99.90
11474;DHT22;5793;52.238;13.438;2022-10-17T06:48:26;14.00;99.90
11474;DHT22;5793;52.238;13.438;2022-10-17T06:50:57;14.10;99.90
11474;DHT22;5793;52.238;13.438;2022-10-17T06:53:26;14.10;99.90
11474;DHT22;5793;52.238;13.438;2022-10-17T06:55:54;14.20;99.90
11474;DHT22;5793;52.238;13.438;2022-10-17T06:58:26;14.20;99.90
11474;DHT22;5793;52.238;13.438;2022-10-17T07:00:57;14.30;99.90
11474;DHT22;5793;52.238;13.438;2022-10-17T07:03:27;14.40;99.90
11474;DHT22;5793;52.238;13.438;2022-10-17T07:05:56;14.60;99.90
11474;DHT22;5793;52.238;13.438;2022-10-17T07:08:25;14.70;99.90
11474;DHT22;5793;52.238;13.438;2022-10-17T07:10:53;14.90;99.90
11474;DHT22;5793;52.238;13.438;2022-10-17T07:13:21;15.10;99.90
11474;DHT22;5793;52.238;13.438;2022-10-17T07:15:49;15.20;99.90
11474;DHT22;5793;52.238;13.438;2022-10-17T07:18:17;15.30;99.90
11474;DHT22;5793;52.238;13.438;2022-10-17T07:20:52;15.40;99.90
11474;DHT22;5793;52.238;13.438;2022-10-17T07:23:22;15.40;99.90
11474;DHT22;5793;52.238;13.438;2022-10-17T07:25:50;15.40;99.90
11474;DHT22;5793;52.238;13.438;2022-10-17T07:28:18;15.50;99.90
11474;DHT22;5793;52.238;13.438;2022-10-17T07:30:46;15.50;99.90
11474;DHT22;5793;52.238;13.438;2022-10-17T07:33:19;15.60;99.90
11474;DHT22;5793;52.238;13.438;2022-10-17T07:35:47;15.60;99.90
11474;DHT22;5793;52.238;13.438;2022-10-17T07:38:15;15.80;99.90
11474;DHT22;5793;52.238;13.438;2022-10-17T07:40:44;15.90;99.90
11474;DHT22;5793;52.238;13.438;2022-10-17T07:43:12;16.10;99.90
11474;DHT22;5793;52.238;13.438;2022-10-17T07:45:40;16.20;99.90
11474;DHT22;5793;52.238;13.438;2022-10-17T07:48:08;16.30;99.90
11474;DHT22;5793;52.238;13.438;2022-10-17T07:50:36;16.50;99.90
11474;DHT22;5793;52.238;13.438;2022-10-17T07:53:03;16.70;99.90
11474;DHT22;5793;52.238;13.438;2022-10-17T07:55:31;16.80;99.90
11474;DHT22;5793;52.238;13.438;2022-10-17T07:58:00;16.90;99.90
11474;DHT22;5793;52.238;13.438;2022-10-17T08:00:28;17.10;99.90
11474;DHT22;5793;52.238;13.438;2022-10-17T08:02:56;17.20;99.90
11474;DHT22;5793;52.238;13.438;2022-10-17T08:05:24;17.30;99.90
11474;DHT22;5793;52.238;13.438;2022-10-17T08:07:51;17.30;99.90
11474;DHT22;5793;52.238;13.438;2022-10-17T08:10:19;17.40;99.90
11474;DHT22;5793;52.238;13.438;2022-10-17T08:12:47;17.60;99.90
11474;DHT22;5793;52.238;13.438;2022-10-17T08:15:16;17.70;99.90
11474;DHT22;5793;52.238;13.438;2022-10-17T08:17:44;17.90;99.90
11474;DHT22;5793;52.238;13.438;2022-10-17T08:20:12;18.00;99.90
11474;DHT22;5793;52.238;13.438;2022-10-17T08:22:39;18.30;99.90
11474;DHT22;5793;52.238;13.438;2022-10-17T08:25:08;19.10;99.90
11474;DHT22;5793;52.238;13.438;2022-10-17T08:27:36;20.50;99.90
11474;DHT22;5793;52.238;13.438;2022-10-17T08:30:04;23.00;99.90
11474;DHT22;5793;52.238;13.438;2022-10-17T08:32:33;24.60;99.90
11474;DHT22;5793;52.238;13.438;2022-10-17T08:35:01;25.50;99.90
11474;DHT22;5793;52.238;13.438;2022-10-17T08:37:29;26.50;99.90
11474;DHT22;5793;52.238;13.438;2022-10-17T08:39:58;28.10;99.90
11474;DHT22;5793;52.238;13.438;2022-10-17T08:42:39;29.30;99.90
11474;DHT22;5793;52.238;13.438;2022-10-17T08:45:15;30.50;96.30
11474;DHT22;5793;52.238;13.438;2022-10-17T08:47:48;31.40;92.10
11474;DHT22;5793;52.238;13.438;2022-10-17T08:50:26;31.90;86.20
11474;DHT22;5793;52.238;13.438;2022-10-17T08:53:00;31.60;83.70
11474;DHT22;5793;52.238;13.438;2022-10-17T08:55:41;31.60;82.50
11474;DHT22;5793;52.238;13.438;2022-10-17T08:58:12;32.20;80.70
11474;DHT22;5793;52.238;13.438;2022-10-17T09:00:45;32.90;75.90
11474;DHT22;5793;52.238;13.438;2022-10-17T09:03:28;32.60;75.00
11474;DHT22;5793;52.238;13.438;2022-10-17T09:06:11;32.50;74.00
11474;DHT22;5793;52.238;13.438;2022-10-17T09:08:45;32.70;73.30
11474;DHT22;5793;52.238;13.438;2022-10-17T09:11:27;33.60;71.80
11474;DHT22;5793;52.238;13.438;2022-10-17T09:14:09;34.10;68.10
11474;DHT22;5793;52.238;13.438;2022-10-17T09:16:58;34.20;66.60
11474;DHT22;5793;52.238;13.438;2022-10-17T09:19:32;35.10;65.40
11474;DHT22;5793;52.238;13.438;2022-10-17T09:22:03;34.70;63.10
11474;DHT22;5793;52.238;13.438;2022-10-17T09:24:38;34.30;64.80
11474;DHT22;5793;52.238;13.438;2022-10-17T09:27:14;35.00;63.70
11474;DHT22;5793;52.238;13.438;2022-10-17T09:29:45;35.10;62.30
11474;DHT22;5793;52.238;13.438;2022-10-17T09:32:20;34.60;63.60
11474;DHT22;5793;52.238;13.438;2022-10-17T09:34:51;34.90;63.40
11474;DHT22;5793;52.238;13.438;2022-10-17T09:37:23;34.70;62.30
11474;DHT22;5793;52.238;13.438;2022-10-17T09:39:53;34.30;61.70
11474;DHT22;5793;52.238;13.438;2022-10-17T09:42:24;33.00;63.90
11474;DHT22;5793;52.238;13.438;2022-10-17T09:45:00;32.90;65.40
11474;DHT22;5793;52.238;13.438;2022-10-17T09:47:34;33.10;64.60
11474;DHT22;5793;52.238;13.438;2022-10-17T09:50:09;33.70;63.40
11474;DHT22;5793;52.238;13.438;2022-10-17T09:52:42;34.40;61.80
11474;DHT22;5793;52.238;13.438;2022-10-17T09:55:17;34.50;62.70
11474;DHT22;5793;52.238;13.438;2022-10-17T09:57:52;34.60;61.50
11474;DHT22;5793;52.238;13.438;2022-10-17T10:00:22;34.40;60.80
11474;DHT22;5793;52.238;13.438;2022-10-17T10:02:50;34.00;61.20
11474;DHT22;5793;52.238;13.438;2022-10-17T10:05:19;34.80;61.10
11474;DHT22;5793;52.238;13.438;2022-10-17T10:08:01;34.90;59.50
11474;DHT22;5793;52.238;13.438;2022-10-17T10:10:30;34.80;58.90
11474;DHT22;5793;52.238;13.438;2022-10-17T10:13:04;34.80;59.70
11474;DHT22;5793;52.238;13.438;2022-10-17T10:15:35;34.90;59.40
11474;DHT22;5793;52.238;13.438;2022-10-17T10:18:27;34.30;59.20
11474;DHT22;5793;52.238;13.438;2022-10-17T10:21:11;33.50;61.10
11474;DHT22;5793;52.238;13.438;2022-10-17T10:23:40;32.90;62.20
11474;DHT22;5793;52.238;13.438;2022-10-17T10:26:19;31.70;65.30
11474;DHT22;5793;52.238;13.438;2022-10-17T10:28:53;30.50;68.30
11474;DHT22;5793;52.238;13.438;2022-10-17T10:31:28;29.50;71.40
11474;DHT22;5793;52.238;13.438;2022-10-17T10:33:59;28.60;75.90
11474;DHT22;5793;52.238;13.438;2022-10-17T10:36:44;27.30;77.70
11474;DHT22;5793;52.238;13.438;2022-10-17T10:39:35;26.20;80.60
11474;DHT22;5793;52.238;13.438;2022-10-17T10:42:06;25.50;83.40
11474;DHT22;5793;52.238;13.438;2022-10-17T10:44:35;25.20;88.20
11474;DHT22;5793;52.238;13.438;2022-10-17T10:47:14;25.00;91.60
11474;DHT22;5793;52.238;13.438;2022-10-17T10:49:43;25.00;93.10
11474;DHT22;5793;52.238;13.438;2022-10-17T10:52:20;25.10;95.80
11474;DHT22;5793;52.238;13.438;2022-10-17T10:54:54;25.00;95.10
11474;DHT22;5793;52.238;13.438;2022-10-17T10:57:27;25.10;97.10
11474;DHT22;5793;52.238;13.438;2022-10-17T11:00:02;25.00;98.80
11474;DHT22;5793;52.238;13.438;2022-10-17T11:02:35;24.90;99.90
11474;DHT22;5793;52.238;13.438;2022-10-17T11:05:11;24.90;99.90
11474;DHT22;5793;52.238;13.438;2022-10-17T11:07:48;24.90;99.90
11474;DHT22;5793;52.238;13.438;2022-10-17T11:10:22;25.00;99.90
11474;DHT22;5793;52.238;13.438;2022-10-17T11:12:55;25.10;99.90
11474;DHT22;5793;52.238;13.438;2022-10-17T11:15:29;25.20;99.90
11474;DHT22;5793;52.238;13.438;2022-10-17T11:17:59;25.20;99.90
11474;DHT22;5793;52.238;13.438;2022-10-17T11:20:35;25.30;99.90
11474;DHT22;5793;52.238;13.438;2022-10-17T11:23:16;25.30;99.90
11474;DHT22;5793;52.238;13.438;2022-10-17T11:25:46;25.40;99.90
11474;DHT22;5793;52.238;13.438;2022-10-17T11:28:17;25.50;99.90
11474;DHT22;5793;52.238;13.438;2022-10-17T11:30:49;25.50;99.90
11474;DHT22;5793;52.238;13.438;2022-10-17T11:33:24;25.50;99.90
11474;DHT22;5793;52.238;13.438;2022-10-17T11:35:58;25.50;99.90
11474;DHT22;5793;52.238;13.438;2022-10-17T11:38:37;25.40;99.90
11474;DHT22;5793;52.238;13.438;2022-10-17T11:41:09;25.40;99.90
11474;DHT22;5793;52.238;13.438;2022-10-17T11:43:44;25.50;99.90
11474;DHT22;5793;52.238;13.438;2022-10-17T11:46:18;25.50;99.90
11474;DHT22;5793;52.238;13.438;2022-10-17T11:48:58;25.60;99.90
11474;DHT22;5793;52.238;13.438;2022-10-17T11:51:28;25.80;99.90
11474;DHT22;5793;52.238;13.438;2022-10-17T11:54:23;25.90;99.90
11474;DHT22;5793;52.238;13.438;2022-10-17T11:57:01;26.00;99.90
11474;DHT22;5793;52.238;13.438;2022-10-17T11:59:54;26.00;99.90
11474;DHT22;5793;52.238;13.438;2022-10-17T12:02:32;25.80;99.90
11474;DHT22;5793;52.238;13.438;2022-10-17T12:05:14;25.80;99.90
11474;DHT22;5793;52.238;13.438;2022-10-17T12:07:48;25.70;99.90
11474;DHT22;5793;52.238;13.438;2022-10-17T12:10:26;25.70;99.90
11474;DHT22;5793;52.238;13.438;2022-10-17T12:12:55;25.70;99.90
11474;DHT22;5793;52.238;13.438;2022-10-17T12:15:28;25.80;99.90
11474;DHT22;5793;52.238;13.438;2022-10-17T12:17:58;25.90;99.90
11474;DHT22;5793;52.238;13.438;2022-10-17T12:20:35;25.90;99.90
11474;DHT22;5793;52.238;13.438;2022-10-17T12:23:17;25.90;99.90
11474;DHT22;5793;52.238;13.438;2022-10-17T12:25:52;25.70;99.90
11474;DHT22;5793;52.238;13.438;2022-10-17T12:28:30;25.50;99.90
11474;DHT22;5793;52.238;13.438;2022-10-17T12:31:00;25.50;99.90
11474;DHT22;5793;52.238;13.438;2022-10-17T12:33:34;25.60;99.90
11474;DHT22;5793;52.238;13.438;2022-10-17T12:39:41;25.70;99.90
11474;DHT22;5793;52.238;13.438;2022-10-17T12:42:32;25.80;99.90
11474;DHT22;5793;52.238;13.438;2022-10-17T12:45:00;25.90;99.90
11474;DHT22;5793;52.238;13.438;2022-10-17T12:47:36;25.80;99.90
11474;DHT22;5793;52.238;13.438;2022-10-17T12:53:13;25.40;99.90
11474;DHT22;5793;52.238;13.438;2022-10-17T12:55:45;25.20;99.90
11474;DHT22;5793;52.238;13.438;2022-10-17T12:58:15;25.30;99.90
11474;DHT22;5793;52.238;13.438;2022-10-17T13:00:48;25.30;99.90
11474;DHT22;5793;52.238;13.438;2022-10-17T13:03:42;25.50;99.90
11474;DHT22;5793;52.238;13.438;2022-10-17T13:06:17;25.50;99.90
11474;DHT22;5793;52.238;13.438;2022-10-17T13:08:49;25.40;99.90
11474;DHT22;5793;52.238;13.438;2022-10-17T13:11:27;25.30;99.90
11474;DHT22;5793;52.238;13.438;2022-10-17T13:13:57;25.20;99.90
11474;DHT22;5793;52.238;13.438;2022-10-17T13:16:30;25.10;99.90
11474;DHT22;5793;52.238;13.438;2022-10-17T13:19:00;25.00;99.90
11474;DHT22;5793;52.238;13.438;2022-10-17T13:21:28;24.90;99.90
11474;DHT22;5793;52.238;13.438;2022-10-17T13:23:56;24.90;99.90
11474;DHT22;5793;52.238;13.438;2022-10-17T13:26:25;24.90;99.90
11474;DHT22;5793;52.238;13.438;2022-10-17T13:29:02;24.90;99.90
11474;DHT22;5793;52.238;13.438;2022-10-17T13:31:32;24.90;99.90
11474;DHT22;5793;52.238;13.438;2022-10-17T13:34:02;24.90;99.90
11474;DHT22;5793;52.238;13.438;2022-10-17T13:36:31;24.90;99.90
11474;DHT22;5793;52.238;13.438;2022-10-17T13:39:05;24.90;99.90
11474;DHT22;5793;52.238;13.438;2022-10-17T13:41:40;24.90;99.90
11474;DHT22;5793;52.238;13.438;2022-10-17T13:44:13;24.70;99.90
11474;DHT22;5793;52.238;13.438;2022-10-17T13:46:42;24.50;99.90
11474;DHT22;5793;52.238;13.438;2022-10-17T13:49:15;24.60;99.90
11474;DHT22;5793;52.238;13.438;2022-10-17T13:51:45;24.60;99.90
11474;DHT22;5793;52.238;13.438;2022-10-17T13:54:31;24.70;99.90
11474;DHT22;5793;52.238;13.438;2022-10-17T13:57:00;24.70;99.90
11474;DHT22;5793;52.238;13.438;2022-10-17T13:59:35;24.80;99.90
11474;DHT22;5793;52.238;13.438;2022-10-17T14:02:04;24.80;99.90
11474;DHT22;5793;52.238;13.438;2022-10-17T14:04:38;24.80;99.90
11474;DHT22;5793;52.238;13.438;2022-10-17T14:07:28;24.80;99.90
11474;DHT22;5793;52.238;13.438;2022-10-17T14:10:19;24.70;99.90
11474;DHT22;5793;52.238;13.438;2022-10-17T14:12:47;24.60;99.90
11474;DHT22;5793;52.238;13.438;2022-10-17T14:15:26;24.70;99.90
11474;DHT22;5793;52.238;13.438;2022-10-17T14:17:56;24.70;99.90
11474;DHT22;5793;52.238;13.438;2022-10-17T14:20:30;24.70;99.90
11474;DHT22;5793;52.238;13.438;2022-10-17T14:23:29;24.70;99.90
11474;DHT22;5793;52.238;13.438;2022-10-17T14:26:10;24.70;99.90
11474;DHT22;5793;52.238;13.438;2022-10-17T14:28:39;24.80;99.90
11474;DHT22;5793;52.238;13.438;2022-10-17T14:31:21;24.70;99.90
11474;DHT22;5793;52.238;13.438;2022-10-17T14:33:52;24.80;99.90
11474;DHT22;5793;52.238;13.438;2022-10-17T14:36:28;24.70;99.90
11474;DHT22;5793;52.238;13.438;2022-10-17T14:38:57;24.70;99.90
11474;DHT22;5793;52.238;13.438;2022-10-17T14:41:27;24.50;99.90
11474;DHT22;5793;52.238;13.438;2022-10-17T14:44:19;24.30;99.90
11474;DHT22;5793;52.238;13.438;2022-10-17T14:46:56;24.00;99.90
11474;DHT22;5793;52.238;13.438;2022-10-17T14:49:34;23.90;99.90
11474;DHT22;5793;52.238;13.438;2022-10-17T14:54:48;23.50;99.90
11474;DHT22;5793;52.238;13.438;2022-10-17T14:57:17;23.30;99.90
11474;DHT22;5793;52.238;13.438;2022-10-17T14:59:45;23.20;99.90
11474;DHT22;5793;52.238;13.438;2022-10-17T15:02:23;23.10;99.90
11474;DHT22;5793;52.238;13.438;2022-10-17T15:04:51;23.10;99.90
11474;DHT22;5793;52.238;13.438;2022-10-17T15:07:20;22.90;99.90
11474;DHT22;5793;52.238;13.438;2022-10-17T15:09:51;22.90;99.90
11474;DHT22;5793;52.238;13.438;2022-10-17T15:12:21;22.80;99.90
11474;DHT22;5793;52.238;13.438;2022-10-17T15:14:49;22.80;99.90
11474;DHT22;5793;52.238;13.438;2022-10-17T15:17:19;22.70;99.90
11474;DHT22;5793;52.238;13.438;2022-10-17T15:19:49;22.70;99.90
11474;DHT22;5793;52.238;13.438;2022-10-17T15:22:17;22.70;99.90
11474;DHT22;5793;52.238;13.438;2022-10-17T15:24:45;22.70;99.90
11474;DHT22;5793;52.238;13.438;2022-10-17T15:27:15;22.70;99.90
11474;DHT22;5793;52.238;13.438;2022-10-17T15:29:44;22.60;99.90
11474;DHT22;5793;52.238;13.438;2022-10-17T15:32:12;22.60;99.90
11474;DHT22;5793;52.238;13.438;2022-10-17T15:34:40;22.60;99.90
11474;DHT22;5793;52.238;13.438;2022-10-17T15:37:15;22.50;99.90
11474;DHT22;5793;52.238;13.438;2022-10-17T15:39:44;22.50;99.90
11474;DHT22;5793;52.238;13.438;2022-10-17T15:42:18;22.40;99.90
11474;DHT22;5793;52.238;13.438;2022-10-17T15:44:47;22.20;99.90
11474;DHT22;5793;52.238;13.438;2022-10-17T15:47:21;22.00;99.90
11474;DHT22;5793;52.238;13.438;2022-10-17T15:49:50;21.90;99.90
11474;DHT22;5793;52.238;13.438;2022-10-17T15:52:19;21.80;99.90
11474;DHT22;5793;52.238;13.438;2022-10-17T15:54:47;21.70;99.90
11474;DHT22;5793;52.238;13.438;2022-10-17T15:57:18;21.50;99.90
11474;DHT22;5793;52.238;13.438;2022-10-17T15:59:47;21.30;99.90
11474;DHT22;5793;52.238;13.438;2022-10-17T16:02:17;21.20;99.90
11474;DHT22;5793;52.238;13.438;2022-10-17T16:04:46;21.00;99.90
11474;DHT22;5793;52.238;13.438;2022-10-17T16:07:14;20.90;99.90
11474;DHT22;5793;52.238;13.438;2022-10-17T16:09:43;20.70;99.90